Capitol Heights, Iowa
Current Conditions -  °F | °C
As of 3:35 PM on Wednesday 26 Nov 2014 (Local Time) from KIKV Reporting Station
Haze Haze  
Wind Chill: 20°   Ceiling: 1000
Heat Index: 30°   Visibility: 6mi
Dew Point: 28°   Wind: 14mph
Humidity: 93%   Direction: 10°N
Pressure: 30.1"   Gusts: 21mph
Location:  41.6142°N, 93.5543°W
Report Text: KIKV 262135Z AUTO 01012G18KT 6SM BR OVC010 M01/M02 A3010 RMK AO2
Loading
Personal Weather Stations






























Interactive Weather Map New forecast layout! Learn more

10-Day Weather Forecast

Advertisements
Track Severe Weather on mobile